createdAt,value
2022-08-28T00:00:30.011Z,22.65
2022-08-28T00:03:06.847Z,22.65
2022-08-28T00:05:39.006Z,22.64
2022-08-28T00:08:07.925Z,22.62
2022-08-28T00:10:38.745Z,22.60
2022-08-28T00:13:08.870Z,22.59
2022-08-28T00:15:38.619Z,22.58
2022-08-28T00:18:07.273Z,22.54
2022-08-28T00:20:35.367Z,22.51
2022-08-28T00:23:02.620Z,22.48
2022-08-28T00:25:31.412Z,22.45
2022-08-28T00:28:05.461Z,22.42
2022-08-28T00:30:50.117Z,22.35
2022-08-28T00:33:29.626Z,22.31
2022-08-28T00:35:58.165Z,22.26
2022-08-28T00:38:26.831Z,22.23
2022-08-28T00:40:59.878Z,22.21
2022-08-28T00:43:41.687Z,22.19
2022-08-28T00:46:22.920Z,22.13
2022-08-28T00:48:50.640Z,22.09
2022-08-28T00:51:38.958Z,22.06
2022-08-28T00:54:08.169Z,21.98
2022-08-28T00:56:39.429Z,21.94
2022-08-28T00:59:17.282Z,21.89
2022-08-28T01:01:47.763Z,21.83
2022-08-28T01:04:19.756Z,21.76
2022-08-28T01:06:52.102Z,21.73
2022-08-28T01:09:22.269Z,21.71
2022-08-28T01:11:52.365Z,21.71
2022-08-28T01:14:26.307Z,21.70
2022-08-28T01:16:57.347Z,21.66
2022-08-28T01:19:46.404Z,21.58
2022-08-28T01:22:45.407Z,21.56
2022-08-28T01:25:18.604Z,21.55
2022-08-28T01:27:46.602Z,21.56
2022-08-28T01:30:19.554Z,21.57
2022-08-28T01:32:51.521Z,21.60
2022-08-28T01:35:25.425Z,21.61
2022-08-28T01:37:55.441Z,21.59
2022-08-28T01:40:36.594Z,21.55
2022-08-28T01:43:16.875Z,21.51
2022-08-28T01:45:51.568Z,21.48
2022-08-28T01:48:21.630Z,21.32
2022-08-28T01:50:49.596Z,21.24
2022-08-28T01:53:24.763Z,21.23
2022-08-28T01:55:55.252Z,21.25
2022-08-28T01:58:24.409Z,21.27
2022-08-28T02:00:55.185Z,21.31
2022-08-28T02:03:23.255Z,21.32
2022-08-28T02:05:51.018Z,21.32
2022-08-28T02:08:18.484Z,21.32
2022-08-28T02:10:46.445Z,21.32
2022-08-28T02:13:13.697Z,21.30
2022-08-28T02:15:42.730Z,21.27
2022-08-28T02:18:10.470Z,21.26
2022-08-28T02:20:38.013Z,21.26
2022-08-28T02:23:05.909Z,21.24
2022-08-28T02:25:33.238Z,21.22
2022-08-28T02:28:00.695Z,21.21
2022-08-28T02:30:28.261Z,21.21
2022-08-28T02:32:55.702Z,21.19
2022-08-28T02:35:23.861Z,21.17
2022-08-28T02:37:51.947Z,21.13
2022-08-28T02:40:23.911Z,21.10
2022-08-28T02:42:51.779Z,21.07
2022-08-28T02:45:20.498Z,21.06
2022-08-28T02:47:47.921Z,21.06
2022-08-28T02:50:18.429Z,21.04
2022-08-28T02:52:46.105Z,21.01
2022-08-28T02:55:17.043Z,21.01
2022-08-28T02:57:46.225Z,21.01
2022-08-28T03:00:16.788Z,21.00
2022-08-28T03:02:45.965Z,20.99
2022-08-28T03:05:18.351Z,20.98
2022-08-28T03:07:45.604Z,20.96
2022-08-28T03:10:13.204Z,20.94
2022-08-28T03:12:40.886Z,20.92
2022-08-28T03:15:09.089Z,20.90
2022-08-28T03:17:36.795Z,20.89
2022-08-28T03:20:07.497Z,20.89
2022-08-28T03:22:53.376Z,20.87
2022-08-28T03:25:21.966Z,20.86
2022-08-28T03:27:49.366Z,20.86
2022-08-28T03:30:18.307Z,20.85
2022-08-28T03:32:45.695Z,20.85
2022-08-28T03:35:13.132Z,20.84
2022-08-28T03:37:40.793Z,20.82
2022-08-28T03:40:09.704Z,20.79
2022-08-28T03:42:37.129Z,20.76
2022-08-28T03:45:08.998Z,20.77
2022-08-28T03:47:41.568Z,20.81
2022-08-28T03:50:11.618Z,20.83
2022-08-28T03:52:40.495Z,20.86
2022-08-28T03:55:11.299Z,20.89
2022-08-28T03:57:39.613Z,20.92
2022-08-28T04:00:11.805Z,20.97
2022-08-28T04:02:43.960Z,21.00
2022-08-28T04:05:11.861Z,21.03
2022-08-28T04:07:40.059Z,21.05
2022-08-28T04:10:08.122Z,21.09
2022-08-28T04:12:36.616Z,21.12
2022-08-28T04:15:06.411Z,21.13
2022-08-28T04:17:37.890Z,21.14
2022-08-28T04:20:08.074Z,21.15
2022-08-28T04:22:36.780Z,21.14
2022-08-28T04:25:06.306Z,21.12
2022-08-28T04:27:33.657Z,21.10
2022-08-28T04:30:01.003Z,21.06
2022-08-28T04:32:28.584Z,21.06
2022-08-28T04:34:55.703Z,21.05
2022-08-28T04:37:22.885Z,21.04
2022-08-28T04:39:55.066Z,21.03
2022-08-28T04:42:22.370Z,21.02
2022-08-28T04:44:49.657Z,21.03
2022-08-28T04:47:16.878Z,21.02
2022-08-28T04:49:44.163Z,21.03
2022-08-28T04:52:11.499Z,21.02
2022-08-28T04:54:39.558Z,21.05
2022-08-28T04:57:07.046Z,21.08
2022-08-28T04:59:36.931Z,21.12
2022-08-28T05:02:05.321Z,21.17
2022-08-28T05:04:32.522Z,21.19
2022-08-28T05:06:59.942Z,21.23
2022-08-28T05:09:27.273Z,21.29
2022-08-28T05:11:54.610Z,21.33
2022-08-28T05:14:21.777Z,21.36
2022-08-28T05:16:52.662Z,21.40
2022-08-28T05:19:21.079Z,21.43
2022-08-28T05:21:48.347Z,21.44
2022-08-28T05:24:15.797Z,21.46
2022-08-28T05:26:43.165Z,21.50
2022-08-28T05:29:11.121Z,21.55
2022-08-28T05:31:40.929Z,21.62
2022-08-28T05:34:10.131Z,21.67
2022-08-28T05:36:38.845Z,21.70
2022-08-28T05:39:09.553Z,21.72
2022-08-28T05:41:39.055Z,21.79
2022-08-28T05:44:09.170Z,21.84
2022-08-28T05:46:39.181Z,21.90
2022-08-28T05:49:10.016Z,21.96
2022-08-28T05:51:41.887Z,22.03
2022-08-28T05:54:10.455Z,22.07
2022-08-28T05:56:40.205Z,22.11
2022-08-28T05:59:09.056Z,22.16
2022-08-28T06:01:42.329Z,22.21
2022-08-28T06:04:17.407Z,22.26
2022-08-28T06:06:45.732Z,22.31
2022-08-28T06:09:19.980Z,22.35
2022-08-28T06:11:48.400Z,22.42
2022-08-28T06:14:20.185Z,22.48
2022-08-28T06:16:54.438Z,22.53
2022-08-28T06:19:24.149Z,22.61
2022-08-28T06:21:56.711Z,22.69
2022-08-28T06:24:25.865Z,22.76
2022-08-28T06:26:58.050Z,22.84
2022-08-28T06:29:28.736Z,22.92
2022-08-28T06:32:00.678Z,22.99
2022-08-28T06:34:28.861Z,23.07
2022-08-28T06:36:56.217Z,23.15
2022-08-28T06:39:23.985Z,23.21
2022-08-28T06:41:51.231Z,23.28
2022-08-28T06:44:21.518Z,23.34
2022-08-28T06:46:52.430Z,23.36
2022-08-28T06:49:20.150Z,23.43
2022-08-28T06:51:48.121Z,23.50
2022-08-28T06:54:21.779Z,23.55
2022-08-28T06:56:52.129Z,23.63
2022-08-28T06:59:19.927Z,23.69
2022-08-28T07:01:48.047Z,23.77
2022-08-28T07:04:15.548Z,23.85
2022-08-28T07:06:53.028Z,23.92
2022-08-28T07:09:23.765Z,23.98
2022-08-28T07:11:51.334Z,24.05
2022-08-28T07:14:18.513Z,24.11
2022-08-28T07:16:45.654Z,24.17
2022-08-28T07:19:13.237Z,24.23
2022-08-28T07:21:44.125Z,24.29
2022-08-28T07:24:14.347Z,24.38
2022-08-28T07:26:43.365Z,24.45
2022-08-28T07:29:12.026Z,24.52
2022-08-28T07:31:42.246Z,24.58
2022-08-28T07:34:11.598Z,24.63
2022-08-28T07:36:40.124Z,24.69
2022-08-28T07:39:08.810Z,24.77
2022-08-28T07:41:38.716Z,24.85
2022-08-28T07:44:26.359Z,24.92
2022-08-28T07:46:56.548Z,25.00
2022-08-28T07:49:24.749Z,25.05
2022-08-28T07:51:54.334Z,25.13
2022-08-28T07:54:23.233Z,25.20
2022-08-28T07:56:52.269Z,25.27
2022-08-28T07:59:20.065Z,25.33
2022-08-28T08:01:51.161Z,25.40
2022-08-28T08:04:20.741Z,25.47
2022-08-28T08:06:48.489Z,25.56
2022-08-28T08:09:18.943Z,25.63
2022-08-28T08:11:47.357Z,25.72
2022-08-28T08:14:17.126Z,25.81
2022-08-28T08:16:47.220Z,25.88
2022-08-28T08:19:16.115Z,25.95
2022-08-28T08:21:48.069Z,26.02
2022-08-28T08:24:20.380Z,26.12
2022-08-28T08:26:58.827Z,26.19
2022-08-28T08:29:35.365Z,26.24
2022-08-28T08:32:07.975Z,26.29
2022-08-28T08:34:40.065Z,26.36
2022-08-28T08:37:08.422Z,26.43
2022-08-28T08:39:37.181Z,26.50
2022-08-28T08:42:07.283Z,26.57
2022-08-28T08:44:47.214Z,26.64
2022-08-28T08:47:21.957Z,26.70
2022-08-28T08:50:02.555Z,26.74
2022-08-28T08:52:45.756Z,26.79
2022-08-28T08:55:35.076Z,26.84
2022-08-28T08:58:10.914Z,26.92
2022-08-28T09:01:23.255Z,26.99
2022-08-28T09:04:09.786Z,27.08
2022-08-28T09:06:55.682Z,27.11
2022-08-28T09:09:41.383Z,27.16
2022-08-28T09:12:16.702Z,27.23
2022-08-28T09:15:12.331Z,27.31
2022-08-28T09:17:53.701Z,27.42
2022-08-28T09:20:32.722Z,27.48
2022-08-28T09:23:00.594Z,27.54
2022-08-28T09:26:03.313Z,27.62
2022-08-28T09:28:40.571Z,27.69
2022-08-28T09:31:31.227Z,27.78
2022-08-28T09:34:23.838Z,27.93
2022-08-28T09:36:56.581Z,28.02
2022-08-28T09:39:33.579Z,28.07
2022-08-28T09:42:40.971Z,28.11
2022-08-28T09:45:20.882Z,28.21
2022-08-28T09:47:57.193Z,28.31
2022-08-28T09:50:36.317Z,28.43
2022-08-28T09:53:09.289Z,28.48
2022-08-28T09:55:49.868Z,28.52
2022-08-28T09:58:19.945Z,28.60
2022-08-28T10:01:20.966Z,28.66
2022-08-28T10:04:27.722Z,28.76
2022-08-28T10:07:17.688Z,28.81
2022-08-28T10:10:31.794Z,28.85
2022-08-28T10:13:35.140Z,28.93
2022-08-28T10:16:39.825Z,29.00
2022-08-28T10:19:33.426Z,29.11
2022-08-28T10:22:35.294Z,29.25
2022-08-28T10:25:21.904Z,29.32
2022-08-28T10:28:31.039Z,29.38
2022-08-28T10:31:26.895Z,29.47
2022-08-28T10:34:22.374Z,29.61
2022-08-28T10:37:21.165Z,29.64
2022-08-28T10:39:57.295Z,29.70
2022-08-28T10:42:40.553Z,29.70
2022-08-28T10:45:16.644Z,29.75
2022-08-28T10:47:54.297Z,29.81
2022-08-28T10:50:47.365Z,29.92
2022-08-28T10:53:38.193Z,29.93
2022-08-28T10:56:43.302Z,30.02
2022-08-28T10:59:11.733Z,30.10
2022-08-28T11:01:42.260Z,30.13
2022-08-28T11:04:24.886Z,30.14
2022-08-28T11:07:01.013Z,30.21
2022-08-28T11:09:38.153Z,30.44
2022-08-28T11:12:19.347Z,30.48
2022-08-28T11:14:50.799Z,30.54
2022-08-28T11:17:30.044Z,30.60
2022-08-28T11:20:07.720Z,30.69
2022-08-28T11:22:45.918Z,30.77
2022-08-28T11:25:42.993Z,30.82
2022-08-28T11:28:27.132Z,30.86
2022-08-28T11:31:06.493Z,30.93
2022-08-28T11:33:49.424Z,31.01
2022-08-28T11:36:22.271Z,31.09
2022-08-28T11:38:52.806Z,31.24
2022-08-28T11:41:24.046Z,31.38
2022-08-28T11:44:13.408Z,31.56
2022-08-28T11:46:52.132Z,31.68
2022-08-28T11:49:34.138Z,31.79
2022-08-28T11:52:22.582Z,31.89
2022-08-28T11:55:08.449Z,31.94
2022-08-28T12:01:02.983Z,32.01
2022-08-28T12:04:08.059Z,32.03
2022-08-28T12:06:51.657Z,32.23
2022-08-28T12:09:39.905Z,32.48
2022-08-28T12:12:44.984Z,32.64
2022-08-28T12:15:28.273Z,32.76
2022-08-28T12:18:10.293Z,32.84
2022-08-28T12:20:53.283Z,33.07
2022-08-28T12:23:23.308Z,33.28
2022-08-28T12:26:03.872Z,33.50
2022-08-28T12:28:36.948Z,33.73
2022-08-28T12:31:04.262Z,33.81
2022-08-28T12:33:50.040Z,33.90
2022-08-28T12:36:26.109Z,34.12
2022-08-28T12:38:59.998Z,34.34
2022-08-28T12:41:27.830Z,34.55
2022-08-28T12:43:59.485Z,34.69
2022-08-28T12:46:35.759Z,34.84
2022-08-28T12:49:25.121Z,34.95
2022-08-28T12:52:30.868Z,34.79
2022-08-28T12:54:58.535Z,34.81
2022-08-28T12:57:25.784Z,34.99
2022-08-28T13:00:06.143Z,35.17
2022-08-28T13:02:34.391Z,35.20
2022-08-28T13:05:04.520Z,35.03
2022-08-28T13:07:47.155Z,35.09
2022-08-28T13:10:47.468Z,34.98
2022-08-28T13:13:29.980Z,34.48
2022-08-28T13:16:02.252Z,34.13
2022-08-28T13:18:52.541Z,34.13
2022-08-28T13:21:33.060Z,34.31
2022-08-28T13:24:21.404Z,34.61
2022-08-28T13:27:11.856Z,35.03
2022-08-28T13:30:21.637Z,35.30
2022-08-28T13:33:21.681Z,35.56
2022-08-28T13:35:49.990Z,35.43
2022-08-28T13:38:18.608Z,35.41
2022-08-28T13:40:58.337Z,35.38
2022-08-28T13:43:30.222Z,35.51
2022-08-28T13:45:57.516Z,35.63
2022-08-28T13:48:27.069Z,35.83
2022-08-28T13:51:08.610Z,35.84
2022-08-28T13:53:38.340Z,35.97
2022-08-28T13:56:05.596Z,36.22
2022-08-28T13:58:33.151Z,36.39
2022-08-28T14:01:00.614Z,36.59
2022-08-28T14:03:40.820Z,36.78
2022-08-28T14:06:18.158Z,36.98
2022-08-28T14:08:46.420Z,37.03
2022-08-28T14:11:14.825Z,37.01
2022-08-28T14:13:47.100Z,37.11
2022-08-28T14:16:25.734Z,37.16
2022-08-28T14:18:53.858Z,37.03
2022-08-28T14:21:21.803Z,36.82
2022-08-28T14:23:49.079Z,36.58
2022-08-28T14:26:16.346Z,36.29
2022-08-28T14:28:43.514Z,35.92
2022-08-28T14:31:14.412Z,35.62
2022-08-28T14:33:45.193Z,35.32
2022-08-28T14:36:26.500Z,35.01
2022-08-28T14:38:56.452Z,34.72
2022-08-28T14:41:24.843Z,34.52
2022-08-28T14:43:53.316Z,34.33
2022-08-28T14:46:32.153Z,34.16
2022-08-28T14:49:04.837Z,34.00
2022-08-28T14:51:35.315Z,33.84
2022-08-28T14:54:04.390Z,33.62
2022-08-28T14:56:32.273Z,33.43
2022-08-28T14:59:01.507Z,33.33
2022-08-28T15:01:40.212Z,33.25
2022-08-28T15:04:14.643Z,33.14
2022-08-28T15:06:43.561Z,33.01
2022-08-28T15:09:13.125Z,32.91
2022-08-28T15:11:41.804Z,32.77
2022-08-28T15:14:10.317Z,32.66
2022-08-28T15:16:42.741Z,32.47
2022-08-28T15:19:11.880Z,32.33
2022-08-28T15:21:49.173Z,32.17
2022-08-28T15:24:19.574Z,32.05
2022-08-28T15:26:46.734Z,31.90
2022-08-28T15:29:14.506Z,31.86
2022-08-28T15:31:45.682Z,31.76
2022-08-28T15:34:22.001Z,31.68
2022-08-28T15:36:54.693Z,31.64
2022-08-28T15:39:44.366Z,31.63
2022-08-28T15:42:12.148Z,31.59
2022-08-28T15:44:39.942Z,31.54
2022-08-28T15:47:08.079Z,31.51
2022-08-28T15:49:43.416Z,31.47
2022-08-28T15:52:14.973Z,31.36
2022-08-28T15:54:42.400Z,31.30
2022-08-28T15:57:09.741Z,31.20
2022-08-28T15:59:48.769Z,31.15
2022-08-28T16:02:21.629Z,31.10
2022-08-28T16:04:49.776Z,31.07
2022-08-28T16:07:19.152Z,31.03
2022-08-28T16:09:47.241Z,30.98
2022-08-28T16:12:15.189Z,30.91
2022-08-28T16:14:42.865Z,30.83
2022-08-28T16:17:11.317Z,30.75
2022-08-28T16:19:39.852Z,30.68
2022-08-28T16:22:09.023Z,30.59
2022-08-28T16:24:36.634Z,30.53
2022-08-28T16:27:04.687Z,30.47
2022-08-28T16:29:35.482Z,30.39
2022-08-28T16:32:05.439Z,30.30
2022-08-28T16:34:33.947Z,30.23
2022-08-28T16:37:01.300Z,30.14
2022-08-28T16:39:28.577Z,30.06
2022-08-28T16:41:56.056Z,29.99
2022-08-28T16:44:25.741Z,29.89
2022-08-28T16:46:54.385Z,29.79
2022-08-28T16:49:23.047Z,29.70
2022-08-28T16:51:50.316Z,29.60
2022-08-28T16:54:17.999Z,29.51
2022-08-28T16:56:46.249Z,29.43
2022-08-28T16:59:17.479Z,29.33
2022-08-28T17:01:45.304Z,29.26
2022-08-28T17:04:20.708Z,29.19
2022-08-28T17:06:48.133Z,29.11
2022-08-28T17:09:15.693Z,29.05
2022-08-28T17:11:42.974Z,28.98
2022-08-28T17:14:11.559Z,28.91
2022-08-28T17:16:39.180Z,28.85
2022-08-28T17:19:06.543Z,28.79
2022-08-28T17:21:52.178Z,28.74
2022-08-28T17:24:19.699Z,28.68
2022-08-28T17:26:47.142Z,28.61
2022-08-28T17:29:15.315Z,28.57
2022-08-28T17:31:42.627Z,28.52
2022-08-28T17:34:10.373Z,28.47
2022-08-28T17:36:40.552Z,28.44
2022-08-28T17:39:16.907Z,28.39
2022-08-28T17:41:44.340Z,28.35
2022-08-28T17:44:13.263Z,28.32
2022-08-28T17:46:40.776Z,28.29
2022-08-28T17:49:09.816Z,28.26
2022-08-28T17:51:43.047Z,28.23
2022-08-28T17:54:13.963Z,28.19
2022-08-28T17:56:41.922Z,28.17
2022-08-28T17:59:11.044Z,28.14
2022-08-28T18:01:39.397Z,28.11
2022-08-28T18:04:07.458Z,28.07
2022-08-28T18:06:34.813Z,28.00
2022-08-28T18:09:03.836Z,28.01
2022-08-28T18:11:31.085Z,27.97
2022-08-28T18:13:59.430Z,27.94
2022-08-28T18:16:31.342Z,27.90
2022-08-28T18:19:00.605Z,27.85
2022-08-28T18:21:29.388Z,27.83
2022-08-28T18:23:57.069Z,27.80
2022-08-28T18:26:24.599Z,27.77
2022-08-28T18:28:52.224Z,27.75
2022-08-28T18:31:20.763Z,27.74
2022-08-28T18:33:51.994Z,27.72
2022-08-28T18:36:18.731Z,27.70
2022-08-28T18:38:46.905Z,27.68
2022-08-28T18:41:14.806Z,27.65
2022-08-28T18:43:41.884Z,27.62
2022-08-28T18:46:09.593Z,27.61
2022-08-28T18:48:37.633Z,27.59
2022-08-28T18:51:07.298Z,27.58
2022-08-28T18:53:35.634Z,27.56
2022-08-28T18:56:03.903Z,27.55
2022-08-28T18:58:32.133Z,27.51
2022-08-28T19:01:01.935Z,27.50
2022-08-28T19:03:30.266Z,27.46
2022-08-28T19:05:57.729Z,27.43
2022-08-28T19:08:25.793Z,27.40
2022-08-28T19:10:54.104Z,27.35
2022-08-28T19:13:21.583Z,27.32
2022-08-28T19:15:52.258Z,27.28
2022-08-28T19:18:20.383Z,27.25
2022-08-28T19:20:47.908Z,27.23
2022-08-28T19:23:17.838Z,27.21
2022-08-28T19:25:45.936Z,27.19
2022-08-28T19:28:13.399Z,27.17
2022-08-28T19:30:41.109Z,27.14
2022-08-28T19:33:12.730Z,27.11
2022-08-28T19:35:40.321Z,27.09
2022-08-28T19:38:07.471Z,27.06
2022-08-28T19:40:34.654Z,27.04
2022-08-28T19:43:01.868Z,27.01
2022-08-28T19:45:29.845Z,26.98
2022-08-28T19:47:58.588Z,26.95
2022-08-28T19:50:26.311Z,26.91
2022-08-28T19:52:53.748Z,26.89
2022-08-28T19:55:26.837Z,26.85
2022-08-28T19:57:54.785Z,26.81
2022-08-28T20:00:31.478Z,26.76
2022-08-28T20:02:59.372Z,26.72
2022-08-28T20:05:26.702Z,26.66
2022-08-28T20:07:53.848Z,26.59
2022-08-28T20:10:20.961Z,26.49
2022-08-28T20:12:48.800Z,26.34
2022-08-28T20:15:18.902Z,26.25
2022-08-28T20:17:49.770Z,26.18
2022-08-28T20:20:21.366Z,26.10
2022-08-28T20:22:48.625Z,26.03
2022-08-28T20:25:21.853Z,25.98
2022-08-28T20:27:49.475Z,25.94
2022-08-28T20:30:17.423Z,25.91
2022-08-28T20:32:45.133Z,25.89
2022-08-28T20:35:13.925Z,25.86
2022-08-28T20:37:45.123Z,25.82
2022-08-28T20:40:17.761Z,25.79
2022-08-28T20:42:45.685Z,25.77
2022-08-28T20:45:14.658Z,25.75
2022-08-28T20:47:42.418Z,25.73
2022-08-28T20:50:10.318Z,25.70
2022-08-28T20:52:38.686Z,25.67
2022-08-28T20:55:07.940Z,25.65
2022-08-28T20:57:35.957Z,25.64
2022-08-28T21:00:08.673Z,25.64
2022-08-28T21:02:36.705Z,25.63
2022-08-28T21:05:05.188Z,25.63
2022-08-28T21:07:34.491Z,25.61
2022-08-28T21:10:06.746Z,25.50
2022-08-28T21:12:37.380Z,25.40
2022-08-28T21:15:08.158Z,25.38
2022-08-28T21:17:35.776Z,25.38
2022-08-28T21:20:10.174Z,25.36
2022-08-28T21:22:38.536Z,25.34
2022-08-28T21:25:08.837Z,25.28
2022-08-28T21:27:37.761Z,25.22
2022-08-28T21:30:07.813Z,25.18
2022-08-28T21:32:35.676Z,25.14
2022-08-28T21:35:05.790Z,25.15
2022-08-28T21:37:33.666Z,25.14
2022-08-28T21:40:02.002Z,25.14
2022-08-28T21:42:29.394Z,25.13
2022-08-28T21:44:56.510Z,25.08
2022-08-28T21:47:24.407Z,25.06
2022-08-28T21:49:55.261Z,25.06
2022-08-28T21:52:27.102Z,25.07
2022-08-28T21:55:07.838Z,25.09
2022-08-28T21:57:35.432Z,25.10
2022-08-28T22:00:11.588Z,25.11
2022-08-28T22:02:39.253Z,25.11
2022-08-28T22:05:07.724Z,25.10
2022-08-28T22:07:35.707Z,25.08
2022-08-28T22:10:04.677Z,25.06
2022-08-28T22:12:32.902Z,25.04
2022-08-28T22:15:00.617Z,25.01
2022-08-28T22:17:29.210Z,24.97
2022-08-28T22:19:56.362Z,24.92
2022-08-28T22:22:42.465Z,24.88
2022-08-28T22:25:09.919Z,24.85
2022-08-28T22:27:37.165Z,24.84
2022-08-28T22:30:05.568Z,24.82
2022-08-28T22:32:33.030Z,24.78
2022-08-28T22:35:00.566Z,24.78
2022-08-28T22:37:27.710Z,24.77
2022-08-28T22:39:54.899Z,24.73
2022-08-28T22:42:22.717Z,24.72
2022-08-28T22:44:50.025Z,24.70
2022-08-28T22:47:19.012Z,24.68
2022-08-28T22:49:46.737Z,24.64
2022-08-28T22:52:15.116Z,24.60
2022-08-28T22:54:43.699Z,24.55
2022-08-28T22:57:11.463Z,24.54
2022-08-28T22:59:38.920Z,24.55
2022-08-28T23:02:06.172Z,24.55
2022-08-28T23:04:35.497Z,24.55
2022-08-28T23:07:02.723Z,24.54
2022-08-28T23:09:29.897Z,24.53
2022-08-28T23:12:00.023Z,24.53
2022-08-28T23:14:27.451Z,24.53
2022-08-28T23:16:55.649Z,24.50
2022-08-28T23:19:24.673Z,24.48
2022-08-28T23:21:53.193Z,24.46
2022-08-28T23:24:20.483Z,24.44
2022-08-28T23:26:48.549Z,24.38
2022-08-28T23:29:16.267Z,24.35
2022-08-28T23:31:43.492Z,24.32
2022-08-28T23:34:11.002Z,24.29
2022-08-28T23:36:39.546Z,24.25
2022-08-28T23:39:10.639Z,24.22
2022-08-28T23:41:38.279Z,24.19
2022-08-28T23:44:09.040Z,24.15
2022-08-28T23:46:37.064Z,24.13
2022-08-28T23:49:10.987Z,24.07
2022-08-28T23:51:39.356Z,23.98
2022-08-28T23:54:08.639Z,23.93
2022-08-28T23:56:36.838Z,23.89
2022-08-28T23:59:06.023Z,23.89
